createdAt,value
2018-03-22T00:01:34.449Z,85.59
2018-03-22T00:04:02.088Z,85.69
2018-03-22T00:06:29.884Z,85.98
2018-03-22T00:08:57.703Z,86.40
2018-03-22T00:11:25.263Z,86.32
2018-03-22T00:13:52.831Z,86.43
2018-03-22T00:16:20.656Z,86.45
2018-03-22T00:18:48.227Z,86.17
2018-03-22T00:21:15.992Z,86.30
2018-03-22T00:23:43.571Z,86.27
2018-03-22T00:26:11.150Z,85.97
2018-03-22T00:28:38.747Z,85.76
2018-03-22T00:31:06.447Z,85.46
2018-03-22T00:33:34.069Z,85.45
2018-03-22T00:36:01.765Z,85.51
2018-03-22T00:38:29.333Z,85.96
2018-03-22T00:40:57.137Z,86.13
2018-03-22T00:43:24.706Z,85.63
2018-03-22T00:45:52.267Z,85.59
2018-03-22T00:48:19.890Z,86.26
2018-03-22T00:50:47.498Z,86.76
2018-03-22T00:53:15.101Z,86.71
2018-03-22T00:55:42.670Z,86.57
2018-03-22T00:58:10.462Z,86.76
2018-03-22T01:00:38.059Z,86.83
2018-03-22T01:03:05.614Z,86.77
2018-03-22T01:05:33.221Z,86.69
2018-03-22T01:08:00.778Z,87.22
2018-03-22T01:10:28.340Z,87.35
2018-03-22T01:12:55.952Z,87.65
2018-03-22T01:15:23.502Z,87.47
2018-03-22T01:17:51.075Z,87.48
2018-03-22T01:20:18.640Z,87.60
2018-03-22T01:22:46.397Z,87.29
2018-03-22T01:25:13.955Z,86.94
2018-03-22T01:27:41.566Z,87.01
2018-03-22T01:30:20.786Z,86.84
2018-03-22T01:32:48.610Z,86.86
2018-03-22T01:35:16.175Z,87.07
2018-03-22T01:37:43.737Z,86.45
2018-03-22T01:40:11.304Z,86.36
2018-03-22T01:42:39.124Z,86.28
2018-03-22T01:45:06.766Z,86.73
2018-03-22T01:47:34.320Z,87.36
2018-03-22T01:50:02.053Z,87.03
2018-03-22T01:52:29.605Z,86.46
2018-03-22T01:54:57.246Z,85.88
2018-03-22T01:57:24.810Z,85.33
2018-03-22T01:59:52.365Z,85.39
2018-03-22T02:02:20.057Z,85.59
2018-03-22T02:04:47.614Z,85.29
2018-03-22T02:07:15.402Z,85.35
2018-03-22T02:09:42.975Z,86.13
2018-03-22T02:12:10.543Z,86.52
2018-03-22T02:14:38.233Z,86.11
2018-03-22T02:17:06.073Z,86.50
2018-03-22T02:19:33.709Z,86.11
2018-03-22T02:22:01.610Z,85.99
2018-03-22T02:24:29.178Z,85.68
2018-03-22T02:26:56.742Z,85.63
2018-03-22T02:29:24.568Z,85.52
2018-03-22T02:31:52.130Z,85.73
2018-03-22T02:34:19.736Z,85.43
2018-03-22T02:36:47.298Z,85.41
2018-03-22T02:39:15.042Z,85.86
2018-03-22T02:41:42.607Z,86.03
2018-03-22T02:44:10.371Z,86.30
2018-03-22T02:46:37.935Z,85.35
2018-03-22T02:49:05.710Z,86.27
2018-03-22T02:51:33.278Z,86.14
2018-03-22T02:54:01.044Z,86.29
2018-03-22T02:56:28.671Z,86.78
2018-03-22T02:58:56.484Z,86.62
2018-03-22T03:01:24.044Z,87.04
2018-03-22T03:03:51.817Z,86.94
2018-03-22T03:06:19.374Z,86.69
2018-03-22T03:08:47.173Z,86.08
2018-03-22T03:11:14.971Z,86.32
2018-03-22T03:13:42.538Z,87.04
2018-03-22T03:16:10.185Z,87.17
2018-03-22T03:18:38.025Z,86.73
2018-03-22T03:21:05.743Z,86.77
2018-03-22T03:23:33.466Z,86.92
2018-03-22T03:26:01.049Z,87.46
2018-03-22T03:28:28.767Z,87.49
2018-03-22T03:30:56.330Z,86.79
2018-03-22T03:33:23.885Z,86.60
2018-03-22T03:35:51.650Z,86.96
2018-03-22T03:38:19.369Z,87.58
2018-03-22T03:40:46.984Z,87.49
2018-03-22T03:43:14.556Z,86.12
2018-03-22T03:45:42.126Z,86.37
2018-03-22T03:48:09.940Z,86.90
2018-03-22T03:50:37.502Z,87.64
2018-03-22T03:53:05.110Z,87.60
2018-03-22T03:55:32.894Z,87.13
2018-03-22T03:58:00.471Z,87.07
2018-03-22T04:00:28.043Z,87.64
2018-03-22T04:02:55.853Z,87.07
2018-03-22T04:05:23.422Z,86.46
2018-03-22T04:07:50.980Z,87.15
2018-03-22T04:10:18.804Z,87.64
2018-03-22T04:12:46.522Z,86.67
2018-03-22T04:15:14.134Z,86.24
2018-03-22T04:17:41.701Z,86.19
2018-03-22T04:20:09.347Z,85.41
2018-03-22T04:22:36.984Z,85.53
2018-03-22T04:25:04.714Z,85.58
2018-03-22T04:27:32.291Z,85.64
2018-03-22T04:30:00.046Z,85.56
2018-03-22T04:32:27.627Z,86.38
2018-03-22T04:34:55.352Z,85.94
2018-03-22T04:37:22.942Z,85.94
2018-03-22T04:39:50.552Z,85.75
2018-03-22T04:42:18.178Z,85.17
2018-03-22T04:44:45.738Z,85.60
2018-03-22T04:47:13.435Z,86.17
2018-03-22T04:49:41.043Z,86.65
2018-03-22T04:52:08.807Z,85.57
2018-03-22T04:54:36.377Z,84.85
2018-03-22T04:57:03.989Z,85.20
2018-03-22T04:59:31.603Z,86.08
2018-03-22T05:01:59.379Z,85.36
2018-03-22T05:04:26.965Z,85.54
2018-03-22T05:06:54.726Z,84.99
2018-03-22T05:09:22.334Z,84.86
2018-03-22T05:11:49.944Z,84.74
2018-03-22T05:14:17.668Z,83.90
2018-03-22T05:16:45.289Z,84.01
2018-03-22T05:19:12.847Z,84.36
2018-03-22T05:21:40.419Z,84.52
2018-03-22T05:24:08.226Z,84.75
2018-03-22T05:26:36.738Z,85.04
2018-03-22T05:29:04.580Z,85.39
2018-03-22T05:31:32.130Z,85.79
2018-03-22T05:33:59.748Z,85.97
2018-03-22T05:36:27.534Z,86.01
2018-03-22T05:38:55.150Z,86.78
2018-03-22T05:41:22.703Z,86.42
2018-03-22T05:43:50.366Z,86.11
2018-03-22T05:46:17.959Z,85.56
2018-03-22T05:48:45.534Z,84.08
2018-03-22T05:51:13.098Z,84.65
2018-03-22T05:53:40.859Z,84.77
2018-03-22T05:56:08.517Z,84.87
2018-03-22T05:58:36.296Z,86.19
2018-03-22T06:01:03.890Z,85.59
2018-03-22T06:03:31.631Z,85.30
2018-03-22T06:05:59.190Z,85.40
2018-03-22T06:08:26.770Z,85.43
2018-03-22T06:10:54.336Z,85.66
2018-03-22T06:13:22.070Z,85.63
2018-03-22T06:15:49.637Z,85.28
2018-03-22T06:18:17.255Z,85.54
2018-03-22T06:20:44.823Z,85.27
2018-03-22T06:23:12.385Z,85.24
2018-03-22T06:25:40.237Z,85.42
2018-03-22T06:28:07.791Z,84.95
2018-03-22T06:30:35.372Z,84.58
2018-03-22T06:33:03.027Z,85.83
2018-03-22T06:35:30.591Z,85.50
2018-03-22T06:37:58.153Z,85.38
2018-03-22T06:40:25.972Z,85.24
2018-03-22T06:42:53.533Z,83.75
2018-03-22T06:45:21.335Z,84.28
2018-03-22T06:47:48.921Z,84.77
2018-03-22T06:50:16.635Z,84.73
2018-03-22T06:52:44.198Z,84.75
2018-03-22T06:55:11.893Z,84.38
2018-03-22T06:57:43.065Z,84.77
2018-03-22T07:00:10.861Z,85.13
2018-03-22T07:02:38.478Z,85.16
2018-03-22T07:05:06.051Z,85.44
2018-03-22T07:07:33.607Z,85.40
2018-03-22T07:10:01.845Z,85.32
2018-03-22T07:12:29.457Z,84.66
2018-03-22T07:14:57.257Z,84.12
2018-03-22T07:17:24.815Z,84.88
2018-03-22T07:19:52.735Z,84.26
2018-03-22T07:22:20.308Z,84.80
2018-03-22T07:24:48.133Z,84.61
2018-03-22T07:27:15.701Z,85.23
2018-03-22T07:29:43.254Z,84.47
2018-03-22T07:32:10.864Z,84.27
2018-03-22T07:34:38.438Z,84.91
2018-03-22T07:37:06.137Z,85.12
2018-03-22T07:39:33.718Z,84.01
2018-03-22T07:42:01.414Z,84.11
2018-03-22T07:44:34.490Z,85.21
2018-03-22T07:47:02.058Z,84.33
2018-03-22T07:49:29.738Z,84.82
2018-03-22T07:51:57.338Z,84.98
2018-03-22T07:54:24.942Z,85.30
2018-03-22T07:56:52.512Z,84.73
2018-03-22T07:59:20.299Z,84.83
2018-03-22T08:01:47.859Z,84.70
2018-03-22T08:04:15.937Z,83.99
2018-03-22T08:06:43.645Z,84.33
2018-03-22T08:09:11.269Z,84.64
2018-03-22T08:11:39.091Z,85.07
2018-03-22T08:14:06.801Z,84.96
2018-03-22T08:16:34.442Z,84.09
2018-03-22T08:19:02.023Z,83.83
2018-03-22T08:21:29.759Z,84.78
2018-03-22T08:23:57.327Z,84.86
2018-03-22T08:26:24.890Z,84.55
2018-03-22T08:28:52.783Z,84.72
2018-03-22T08:31:20.535Z,84.35
2018-03-22T08:33:48.210Z,84.48
2018-03-22T08:36:15.832Z,84.85
2018-03-22T08:38:43.471Z,84.41
2018-03-22T08:41:11.055Z,84.97
2018-03-22T08:43:38.822Z,84.55
2018-03-22T08:46:06.535Z,84.73
2018-03-22T08:48:34.361Z,84.25
2018-03-22T08:51:02.070Z,85.12
2018-03-22T08:53:29.694Z,84.61
2018-03-22T08:55:57.415Z,83.71
2018-03-22T08:58:24.986Z,84.50
2018-03-22T09:00:52.554Z,84.17
2018-03-22T09:03:20.370Z,84.04
2018-03-22T09:05:48.188Z,83.01
2018-03-22T09:08:15.804Z,84.41
2018-03-22T09:10:43.498Z,84.63
2018-03-22T09:13:11.874Z,84.69
2018-03-22T09:15:39.585Z,85.50
2018-03-22T09:18:07.274Z,85.39
2018-03-22T09:20:34.915Z,85.73
2018-03-22T09:23:02.682Z,85.87
2018-03-22T09:25:30.436Z,84.74
2018-03-22T09:27:58.043Z,85.27
2018-03-22T09:30:25.671Z,85.65
2018-03-22T09:32:53.279Z,84.73
2018-03-22T09:35:20.838Z,85.16
2018-03-22T09:37:48.626Z,84.50
2018-03-22T09:40:16.201Z,83.71
2018-03-22T09:42:43.767Z,83.13
2018-03-22T09:45:11.580Z,83.00
2018-03-22T09:47:39.218Z,83.02
2018-03-22T09:50:06.790Z,82.68
2018-03-22T09:52:34.425Z,83.27
2018-03-22T09:55:02.042Z,83.61
2018-03-22T09:57:29.623Z,82.94
2018-03-22T09:59:57.407Z,83.45
2018-03-22T10:02:25.206Z,83.53
2018-03-22T10:04:52.777Z,83.26
2018-03-22T10:07:20.353Z,83.58
2018-03-22T10:09:47.914Z,84.45
2018-03-22T10:12:15.488Z,84.78
2018-03-22T10:14:43.297Z,83.57
2018-03-22T10:17:11.114Z,84.04
2018-03-22T10:19:38.932Z,83.95
2018-03-22T10:22:06.603Z,83.50
2018-03-22T10:24:34.319Z,83.50
2018-03-22T10:27:02.074Z,82.92
2018-03-22T10:29:29.785Z,83.67
2018-03-22T10:31:57.449Z,84.24
2018-03-22T10:34:25.131Z,83.72
2018-03-22T10:36:52.834Z,83.56
2018-03-22T10:39:20.410Z,83.69
2018-03-22T10:41:48.195Z,84.33
2018-03-22T10:44:15.808Z,84.62
2018-03-22T10:46:43.532Z,84.86
2018-03-22T10:49:11.351Z,84.97
2018-03-22T10:51:39.057Z,84.95
2018-03-22T10:54:06.679Z,85.02
2018-03-22T10:56:34.537Z,84.43
2018-03-22T10:59:02.114Z,84.79
2018-03-22T11:01:35.203Z,84.86
2018-03-22T11:04:07.995Z,84.47
2018-03-22T11:06:35.573Z,84.68
2018-03-22T11:09:03.175Z,84.53
2018-03-22T11:11:30.955Z,84.55
2018-03-22T11:13:58.546Z,83.54
2018-03-22T11:16:26.590Z,83.43
2018-03-22T11:18:54.159Z,82.98
2018-03-22T11:21:21.802Z,83.09
2018-03-22T11:23:49.601Z,83.36
2018-03-22T11:26:17.170Z,82.92
2018-03-22T11:28:45.356Z,83.00
2018-03-22T11:31:12.940Z,82.04
2018-03-22T11:33:40.524Z,82.15
2018-03-22T11:36:08.291Z,82.10
2018-03-22T11:38:36.110Z,81.73
2018-03-22T11:41:03.706Z,81.87
2018-03-22T11:43:31.365Z,81.65
2018-03-22T11:45:59.157Z,82.09
2018-03-22T11:48:27.088Z,80.95
2018-03-22T11:50:54.720Z,82.03
2018-03-22T11:53:22.306Z,82.55
2018-03-22T11:55:49.872Z,82.26
2018-03-22T11:58:17.435Z,82.80
2018-03-22T12:00:44.989Z,82.20
2018-03-22T12:03:12.796Z,82.50
2018-03-22T12:05:40.498Z,83.21
2018-03-22T12:08:08.056Z,83.23
2018-03-22T12:10:35.652Z,83.37
2018-03-22T12:13:03.250Z,82.22
2018-03-22T12:15:31.075Z,82.84
2018-03-22T12:17:58.653Z,83.46
2018-03-22T12:20:26.242Z,84.25
2018-03-22T12:22:53.854Z,84.64
2018-03-22T12:25:21.651Z,83.35
2018-03-22T12:27:49.468Z,83.73
2018-03-22T12:30:17.200Z,83.65
2018-03-22T12:32:45.004Z,84.46
2018-03-22T12:35:12.919Z,84.79
2018-03-22T12:37:40.489Z,84.62
2018-03-22T12:40:08.156Z,84.85
2018-03-22T12:42:35.764Z,84.46
2018-03-22T12:45:03.398Z,83.62
2018-03-22T12:47:31.216Z,84.30
2018-03-22T12:49:59.034Z,84.51
2018-03-22T12:52:26.642Z,84.61
2018-03-22T12:54:54.213Z,84.79
2018-03-22T12:57:21.994Z,84.99
2018-03-22T12:59:49.743Z,84.71
2018-03-22T13:02:17.314Z,84.62
2018-03-22T13:04:44.945Z,84.31
2018-03-22T13:07:12.757Z,84.94
2018-03-22T13:09:40.482Z,84.70
2018-03-22T13:12:08.066Z,84.95
2018-03-22T13:14:35.813Z,84.05
2018-03-22T13:17:03.458Z,84.62
2018-03-22T13:19:31.251Z,84.76
2018-03-22T13:21:58.815Z,85.68
2018-03-22T13:24:26.461Z,85.65
2018-03-22T13:26:54.025Z,85.09
2018-03-22T13:29:21.665Z,85.53
2018-03-22T13:31:49.419Z,85.13
2018-03-22T13:34:17.248Z,85.77
2018-03-22T13:36:44.967Z,85.78
2018-03-22T13:39:12.586Z,85.02
2018-03-22T13:41:40.416Z,84.73
2018-03-22T13:44:07.999Z,85.83
2018-03-22T13:46:35.957Z,86.39
2018-03-22T13:49:03.548Z,86.04
2018-03-22T13:51:31.118Z,85.99
2018-03-22T13:53:58.742Z,85.75
2018-03-22T13:56:26.328Z,85.40
2018-03-22T13:58:53.893Z,85.43
2018-03-22T14:01:21.660Z,85.20
2018-03-22T14:03:49.234Z,85.47
2018-03-22T14:06:16.983Z,85.83
2018-03-22T14:08:44.635Z,85.58
2018-03-22T14:11:12.206Z,85.91
2018-03-22T14:13:40.045Z,85.42
2018-03-22T14:16:07.640Z,85.89
2018-03-22T14:18:35.278Z,85.80
2018-03-22T14:21:02.995Z,86.73
2018-03-22T14:23:30.666Z,86.39
2018-03-22T14:25:58.242Z,86.46
2018-03-22T14:28:25.811Z,86.36
2018-03-22T14:30:53.662Z,86.32
2018-03-22T14:33:21.271Z,86.00
2018-03-22T14:35:48.846Z,85.98
2018-03-22T14:38:16.624Z,85.76
2018-03-22T14:40:44.410Z,86.15
2018-03-22T14:43:12.042Z,86.65
2018-03-22T14:45:39.628Z,87.08
2018-03-22T14:48:07.214Z,86.74
2018-03-22T14:50:34.819Z,86.72
2018-03-22T14:53:02.407Z,85.93
2018-03-22T14:55:30.036Z,85.59
2018-03-22T14:57:57.969Z,86.20
2018-03-22T15:00:25.533Z,86.20
2018-03-22T15:02:53.408Z,86.45
2018-03-22T15:05:21.042Z,86.64
2018-03-22T15:07:48.680Z,86.55
2018-03-22T15:10:16.256Z,86.53
2018-03-22T15:12:43.965Z,86.24
2018-03-22T15:15:11.541Z,85.57
2018-03-22T15:17:39.421Z,85.94
2018-03-22T15:20:07.105Z,85.89
2018-03-22T15:22:34.776Z,86.01
2018-03-22T15:25:02.567Z,85.97
2018-03-22T15:27:30.151Z,86.17
2018-03-22T15:29:58.305Z,86.64
2018-03-22T15:32:25.963Z,86.77
2018-03-22T15:34:53.718Z,86.69
2018-03-22T15:37:21.557Z,86.14
2018-03-22T15:39:49.153Z,85.77
2018-03-22T15:42:16.867Z,86.28
2018-03-22T15:44:44.463Z,86.99
2018-03-22T15:47:12.042Z,86.16
2018-03-22T15:49:39.634Z,85.86
2018-03-22T15:52:07.218Z,85.98
2018-03-22T15:54:34.939Z,85.69
2018-03-22T15:57:02.636Z,86.11
2018-03-22T15:59:30.235Z,86.55
2018-03-22T16:01:57.829Z,86.33
2018-03-22T16:04:25.755Z,86.40
2018-03-22T16:06:53.576Z,86.81
2018-03-22T16:09:21.602Z,86.71
2018-03-22T16:11:49.716Z,86.96
2018-03-22T16:14:17.323Z,86.98
2018-03-22T16:16:44.942Z,86.85
2018-03-22T16:19:12.671Z,87.18
2018-03-22T16:21:40.379Z,87.14
2018-03-22T16:24:08.209Z,86.52
2018-03-22T16:26:35.799Z,86.87
2018-03-22T16:29:03.542Z,86.67
2018-03-22T16:31:31.119Z,86.50
2018-03-22T16:33:58.713Z,86.50
2018-03-22T16:36:26.308Z,86.69
2018-03-22T16:38:53.886Z,86.17
2018-03-22T16:41:21.622Z,85.73
2018-03-22T16:43:49.199Z,85.61
2018-03-22T16:46:16.780Z,85.06
2018-03-22T16:48:44.375Z,85.08
2018-03-22T16:51:12.204Z,85.67
2018-03-22T16:53:39.786Z,85.10
2018-03-22T16:56:07.551Z,84.94
2018-03-22T16:58:35.357Z,84.72
2018-03-22T17:01:03.075Z,84.71
2018-03-22T17:03:30.900Z,84.63
2018-03-22T17:05:58.489Z,84.48
2018-03-22T17:08:26.524Z,84.47
2018-03-22T17:10:54.165Z,84.66
2018-03-22T17:13:21.968Z,84.99
2018-03-22T17:15:49.542Z,84.35
2018-03-22T17:18:17.301Z,84.71
2018-03-22T17:20:44.890Z,84.55
2018-03-22T17:23:12.720Z,84.82
2018-03-22T17:25:40.298Z,85.05
2018-03-22T17:28:07.887Z,84.89
2018-03-22T17:30:35.651Z,84.89
2018-03-22T17:33:03.233Z,85.10
2018-03-22T17:35:30.854Z,85.26
2018-03-22T17:37:58.656Z,85.25
2018-03-22T17:40:26.229Z,85.42
2018-03-22T17:42:53.815Z,85.37
2018-03-22T17:45:21.391Z,85.61
2018-03-22T17:47:48.972Z,85.09
2018-03-22T17:50:16.652Z,84.53
2018-03-22T17:52:44.279Z,85.32
2018-03-22T17:55:12.073Z,84.87
2018-03-22T17:57:39.931Z,86.07
2018-03-22T18:00:07.590Z,84.98
2018-03-22T18:02:35.176Z,85.19
2018-03-22T18:05:02.855Z,85.13
2018-03-22T18:07:30.474Z,85.22
2018-03-22T18:09:58.093Z,85.45
2018-03-22T18:12:25.698Z,85.42
2018-03-22T18:14:53.290Z,85.35
2018-03-22T18:17:21.023Z,85.94
2018-03-22T18:19:48.753Z,85.54
2018-03-22T18:22:16.454Z,85.55
2018-03-22T18:24:44.032Z,85.53
2018-03-22T18:27:11.623Z,85.58
2018-03-22T18:29:39.216Z,85.69
2018-03-22T18:32:06.785Z,85.92
2018-03-22T18:34:34.375Z,86.33
2018-03-22T18:37:02.179Z,85.58
2018-03-22T18:39:30.002Z,85.48
2018-03-22T18:41:57.607Z,85.18
2018-03-22T18:44:25.435Z,85.81
2018-03-22T18:46:53.252Z,86.28
2018-03-22T18:49:21.072Z,85.83
2018-03-22T18:51:48.679Z,85.47
2018-03-22T18:54:16.252Z,85.42
2018-03-22T18:56:44.127Z,85.24
2018-03-22T18:59:11.764Z,85.13
2018-03-22T19:01:39.351Z,85.83
2018-03-22T19:04:07.180Z,85.42
2018-03-22T19:06:34.770Z,85.44
2018-03-22T19:09:02.515Z,85.69
2018-03-22T19:11:30.115Z,85.12
2018-03-22T19:13:57.954Z,85.30
2018-03-22T19:16:25.562Z,85.55
2018-03-22T19:18:53.390Z,85.57
2018-03-22T19:21:20.977Z,85.33
2018-03-22T19:23:48.598Z,85.78
2018-03-22T19:26:16.234Z,85.82
2018-03-22T19:28:43.809Z,85.97
2018-03-22T19:31:11.438Z,85.79
2018-03-22T19:33:39.084Z,85.81
2018-03-22T19:36:06.665Z,85.93
2018-03-22T19:38:34.434Z,85.79
2018-03-22T19:41:02.030Z,85.76
2018-03-22T19:43:29.615Z,85.70
2018-03-22T19:45:57.348Z,85.56
2018-03-22T19:48:24.971Z,86.00
2018-03-22T19:50:52.542Z,85.92
2018-03-22T19:53:20.114Z,85.91
2018-03-22T19:55:47.834Z,86.33
2018-03-22T19:58:15.550Z,86.20
2018-03-22T20:00:43.394Z,86.58
2018-03-22T20:03:10.971Z,86.98
2018-03-22T20:05:38.654Z,86.84
2018-03-22T20:08:06.223Z,86.61
2018-03-22T20:10:33.799Z,86.76
2018-03-22T20:13:01.406Z,86.65
2018-03-22T20:15:29.011Z,86.71
2018-03-22T20:17:56.590Z,86.62
2018-03-22T20:20:24.169Z,86.58
2018-03-22T20:22:51.802Z,85.88
2018-03-22T20:25:19.386Z,86.50
2018-03-22T20:27:47.190Z,85.97
2018-03-22T20:30:14.907Z,85.99
2018-03-22T20:32:42.478Z,86.06
2018-03-22T20:35:10.245Z,86.45
2018-03-22T20:37:38.065Z,86.49
2018-03-22T20:40:05.821Z,86.19
2018-03-22T20:42:33.394Z,86.16
2018-03-22T20:45:01.216Z,86.16
2018-03-22T20:47:28.798Z,86.39
2018-03-22T20:49:56.367Z,86.85
2018-03-22T20:52:23.959Z,86.43
2018-03-22T20:54:51.688Z,86.82
2018-03-22T20:57:19.393Z,86.73
2018-03-22T20:59:46.962Z,85.93
2018-03-22T21:02:14.604Z,86.65
2018-03-22T21:04:42.177Z,85.99
2018-03-22T21:07:09.966Z,86.08
2018-03-22T21:09:37.551Z,85.90
2018-03-22T21:12:05.148Z,85.96
2018-03-22T21:14:32.931Z,85.95
2018-03-22T21:17:00.498Z,86.20
2018-03-22T21:19:28.268Z,85.73
2018-03-22T21:21:55.866Z,85.70
2018-03-22T21:24:23.442Z,85.92
2018-03-22T21:26:51.026Z,85.55
2018-03-22T21:29:18.599Z,85.22
2018-03-22T21:31:46.457Z,84.48
2018-03-22T21:34:14.092Z,84.87
2018-03-22T21:36:41.806Z,84.92
2018-03-22T21:39:09.404Z,84.64
2018-03-22T21:41:37.053Z,84.96
2018-03-22T21:44:16.759Z,85.46
2018-03-22T21:46:44.660Z,85.22
2018-03-22T21:49:12.512Z,84.38
2018-03-22T21:51:40.154Z,84.19
2018-03-22T21:54:07.730Z,83.83
2018-03-22T21:56:35.305Z,84.26
2018-03-22T21:59:02.941Z,84.07
2018-03-22T22:01:30.743Z,83.81
2018-03-22T22:03:58.562Z,83.84
2018-03-22T22:06:26.381Z,84.10
2018-03-22T22:08:53.945Z,84.11
2018-03-22T22:11:21.517Z,83.71
2018-03-22T22:13:49.198Z,84.15
2018-03-22T22:16:17.021Z,83.99
2018-03-22T22:18:44.598Z,84.50
2018-03-22T22:21:12.194Z,84.79
2018-03-22T22:23:40.107Z,84.18
2018-03-22T22:26:07.927Z,84.03
2018-03-22T22:28:35.626Z,84.53
2018-03-22T22:31:03.210Z,84.85
2018-03-22T22:33:30.790Z,85.29
2018-03-22T22:35:58.402Z,85.03
2018-03-22T22:38:26.022Z,85.19
2018-03-22T22:40:53.646Z,85.65
2018-03-22T22:43:21.451Z,85.92
2018-03-22T22:45:49.022Z,85.74
2018-03-22T22:48:16.788Z,85.10
2018-03-22T22:50:44.362Z,85.19
2018-03-22T22:53:12.125Z,84.44
2018-03-22T22:55:39.744Z,85.16
2018-03-22T22:58:07.378Z,85.53
2018-03-22T23:00:34.963Z,85.54
2018-03-22T23:03:02.695Z,85.60
2018-03-22T23:05:30.394Z,86.09
2018-03-22T23:07:57.961Z,86.40
2018-03-22T23:10:25.562Z,86.33
2018-03-22T23:12:53.144Z,86.12
2018-03-22T23:15:20.813Z,86.43
2018-03-22T23:17:48.602Z,86.90
2018-03-22T23:20:16.198Z,86.92
2018-03-22T23:22:43.902Z,87.21
2018-03-22T23:25:11.659Z,87.39
2018-03-22T23:27:39.242Z,87.19
2018-03-22T23:30:06.818Z,87.26
2018-03-22T23:32:34.456Z,87.52
2018-03-22T23:35:02.053Z,87.49
2018-03-22T23:37:29.673Z,87.60
2018-03-22T23:39:57.464Z,87.51
2018-03-22T23:42:25.283Z,87.23
2018-03-22T23:44:52.873Z,87.40
2018-03-22T23:47:20.611Z,87.52
2018-03-22T23:49:48.228Z,87.85
2018-03-22T23:52:15.878Z,87.24
2018-03-22T23:54:43.773Z,86.55
2018-03-22T23:57:11.341Z,86.59
2018-03-22T23:59:38.916Z,86.50
